Roy Kristian — CFK5461 — position and weather

sailwx.info

Track history (hours):
 
Tides and Currents Weather Stations Pressure Air Temp Water Temp Dewpoint Dewpoint Depression Visibility Wind Speed Wind Dir Waves Ship Positions

Roy Kristian

Last reported at 2017-Dec-10 23:36 UTC. Time now 2017-Dec-11 09:46 UTC.
Position N 50°32' W 126°42'.

; draft 5 m.

Type: Fishing. MMSI: 316008770.

Date/timePositionNaut miles runAvg speedWind from/ knotsBaromVisibWave heightAir tempDewpointWater temp
2017-Dec-10 23:36N 50°32' W 126°42'2 9.5
2017-Dec-10 23:20N 50°33' W 126°46'4 9.6
2017-Dec-10 22:58N 50°33' W 126°52'1 1.1
2017-Dec-10 22:14N 50°32' W 126°53'0 0.1
2017-Dec-10 21:47N 50°32' W 126°53'10 7.8
2017-Dec-10 20:27N 50°40' W 126°42'9 4.3
2017-Dec-10 18:22N 50°45' W 126°30'4 0.3
2017-Dec-10 03:37N 50°48' W 126°26'110.0
2017-Dec-10 03:28N 50°47' W 126°28'4 1.6
2017-Dec-10 00:41N 50°45' W 126°33'3 9.1
2017-Dec-10 00:23N 50°46' W 126°30'3 0.9
2017-Dec-09 20:57N 50°48' W 126°26'710.7
2017-Dec-09 20:20N 50°44' W 126°34'1 0.7
2017-Dec-09 18:24N 50°45' W 126°32'8 0.6
2017-Dec-09 04:39N 50°50' W 126°22'210.2
2017-Dec-09 04:26N 50°49' W 126°25'510.4
2017-Dec-09 04:00N 50°45' W 126°30'1 0.5
2017-Dec-09 01:34N 50°45' W 126°32'110.3
2017-Dec-09 01:30N 50°45' W 126°31'7 2.0
2017-Dec-08 22:01N 50°50' W 126°22'1 9.6
2017-Dec-08 21:56N 50°49' W 126°23'511.0
2017-Dec-08 21:30N 50°46' W 126°29'4 1.7
2017-Dec-08 19:06N 50°44' W 126°34'310.0
2017-Dec-08 18:48N 50°45' W 126°30'3 9.7
2017-Dec-08 18:27N 50°48' W 126°27'6 0.4
2017-Dec-08 05:03N 50°51' W 126°19'0 0.1
2017-Dec-08 05:00N 50°51' W 126°19'0 0.1
2017-Dec-08 04:27N 50°51' W 126°19'4 8.4
2017-Dec-08 03:57N 50°49' W 126°25'510.2
2017-Dec-08 03:28N 50°45' W 126°30'4 1.9
2017-Dec-08 01:20N 50°43' W 126°35'3 9.7
2017-Dec-08 01:00N 50°45' W 126°31'10 3.2
2017-Dec-07 21:59N 50°51' W 126°19'5 9.8
2017-Dec-07 21:29N 50°48' W 126°26'7 9.9
2017-Dec-07 20:48N 50°44' W 126°34'1 0.4
2017-Dec-07 18:46N 50°43' W 126°34'3 8.1
2017-Dec-07 18:27N 50°45' W 126°31'4 9.7
2017-Dec-07 18:00N 50°48' W 126°27'5 0.4
2017-Dec-07 05:31N 50°51' W 126°19'2 7.7
2017-Dec-07 05:15N 50°50' W 126°22'2 9.5
2017-Dec-07 05:00N 50°49' W 126°26'8 2.7
2017-Dec-07 01:56N 50°43' W 126°35'  
2017-Dec-04 10:30N 50°05' W 125°17'0 0.0
2017-Dec-04 10:00N 50°05' W 125°17'0 0.1
2017-Dec-04 09:30N 50°05' W 125°17'0 0.0
2017-Dec-04 09:00N 50°05' W 125°17'0 0.0
2017-Dec-04 08:30N 50°05' W 125°17'0 0.0
2017-Dec-04 08:00N 50°05' W 125°17'0 0.1
2017-Dec-04 07:30N 50°05' W 125°17'0 0.0
2017-Dec-04 07:00N 50°05' W 125°17'0 0.0
2017-Dec-04 06:30N 50°05' W 125°17'0 0.0
2017-Dec-04 06:00N 50°05' W 125°17'0 0.0
2017-Dec-04 05:30N 50°05' W 125°17'0 0.0
2017-Dec-04 05:00N 50°05' W 125°17'0 0.1
2017-Dec-04 04:30N 50°05' W 125°17'0 0.1
2017-Dec-04 04:00N 50°05' W 125°17'0 0.1
2017-Dec-04 03:30N 50°05' W 125°17'0 0.1
2017-Dec-04 03:00N 50°05' W 125°17'0 0.0
2017-Dec-04 02:30N 50°05' W 125°17'0 0.1
2017-Dec-04 02:00N 50°05' W 125°17'0 0.1
2017-Dec-04 01:30N 50°05' W 125°17'0 0.1
2017-Dec-04 01:00N 50°05' W 125°17'0 0.0
2017-Dec-04 00:30N 50°05' W 125°17'0 0.1
2017-Dec-04 00:00N 50°05' W 125°17'0 0.1
2017-Dec-03 23:30N 50°05' W 125°17'0 0.1
2017-Dec-03 22:58N 50°05' W 125°17'0 0.0
2017-Dec-03 22:26N 50°05' W 125°17'0 0.1
2017-Dec-03 22:00N 50°05' W 125°17'0 0.0
2017-Dec-03 21:27N 50°05' W 125°17'0 0.1
2017-Dec-03 20:51N 50°05' W 125°17'0 0.0
2017-Dec-03 20:26N 50°05' W 125°17'0 0.1
2017-Dec-03 19:57N 50°05' W 125°17'0 0.1
2017-Dec-03 19:28N 50°05' W 125°17'0 0.0
2017-Dec-03 18:54N 50°05' W 125°17'0 0.0
2017-Dec-03 18:30N 50°05' W 125°17'0 0.0
2017-Dec-03 17:57N 50°05' W 125°17'0 0.1
2017-Dec-03 17:30N 50°05' W 125°17'0 0.0
2017-Dec-03 17:00N 50°05' W 125°17'0 0.1
2017-Dec-03 16:30N 50°05' W 125°17'0 0.0
2017-Dec-03 16:00N 50°05' W 125°17'0 0.0
2017-Dec-03 15:30N 50°05' W 125°17'0 0.1
2017-Dec-03 15:00N 50°05' W 125°17'0 0.1
2017-Dec-03 14:30N 50°05' W 125°17'0 0.1
2017-Dec-03 14:00N 50°05' W 125°17'0 0.1
2017-Dec-03 13:30N 50°05' W 125°17'0 0.0
2017-Dec-03 13:00N 50°05' W 125°17'0 0.1
2017-Dec-03 12:30N 50°05' W 125°17'0 0.1
2017-Dec-03 12:00N 50°05' W 125°17'0 0.1
2017-Dec-03 11:30N 50°05' W 125°17'0 0.1
2017-Dec-03 11:00N 50°05' W 125°17'0 0.0
2017-Dec-03 10:30N 50°05' W 125°17'0 0.0
2017-Dec-03 10:00N 50°05' W 125°17'0 0.1
2017-Dec-03 09:30N 50°05' W 125°17'0 0.0
2017-Dec-03 09:00N 50°05' W 125°17'0 0.1
2017-Dec-03 08:30N 50°05' W 125°17'0 0.0
2017-Dec-03 08:00N 50°05' W 125°17'0 0.0
2017-Dec-03 07:30N 50°05' W 125°17'0 0.0
2017-Dec-03 07:00N 50°05' W 125°17'0 0.0
2017-Dec-03 06:30N 50°05' W 125°17'0 0.0
2017-Dec-03 06:00N 50°05' W 125°17'0 0.0
2017-Dec-03 05:30N 50°05' W 125°17'0 0.0
2017-Dec-03 05:00N 50°05' W 125°17'0 0.1
2017-Dec-03 04:30N 50°05' W 125°17'0 0.1
2017-Dec-03 04:00N 50°05' W 125°17'0 0.0
2017-Dec-03 03:30N 50°05' W 125°17'0 0.0
2017-Dec-03 03:00N 50°05' W 125°17'0 0.1
2017-Dec-03 02:30N 50°05' W 125°17'0 0.0
2017-Dec-03 02:00N 50°05' W 125°17'0 0.1
2017-Dec-03 01:30N 50°05' W 125°17'0 0.0
2017-Dec-03 01:00N 50°05' W 125°17'0 0.0
2017-Dec-03 00:30N 50°05' W 125°17'0 0.0
2017-Dec-03 00:00N 50°05' W 125°17'0 0.0
2017-Dec-02 23:30N 50°05' W 125°17'0 0.0
2017-Dec-02 23:00N 50°05' W 125°17'0 0.0
2017-Dec-02 22:30N 50°05' W 125°17'0 0.1
2017-Dec-02 22:00N 50°05' W 125°17'0 0.0
2017-Dec-02 21:29N 50°05' W 125°17'0 0.1
2017-Dec-02 21:00N 50°05' W 125°17'0 0.0
2017-Dec-02 20:28N 50°05' W 125°17'0 0.1
2017-Dec-02 20:00N 50°05' W 125°17'0 0.1
2017-Dec-02 19:30N 50°05' W 125°17'0 0.0
2017-Dec-02 19:00N 50°05' W 125°17'0 0.1
2017-Dec-02 18:30N 50°05' W 125°17'0 0.1
2017-Dec-02 18:00N 50°05' W 125°17'0 0.1
2017-Dec-02 17:30N 50°05' W 125°17'0 0.1
2017-Dec-02 17:00N 50°05' W 125°17'0 0.1
2017-Dec-02 16:30N 50°05' W 125°17'0 0.0
2017-Dec-02 16:00N 50°05' W 125°17'0 0.1
2017-Dec-02 15:30N 50°05' W 125°17'0 0.0
2017-Dec-02 15:00N 50°05' W 125°17'0 0.0
2017-Dec-02 14:30N 50°05' W 125°17'0 0.1
2017-Dec-02 14:00N 50°05' W 125°17'0 0.1
2017-Dec-02 13:30N 50°05' W 125°17'0 0.1
2017-Dec-02 13:00N 50°05' W 125°17'0 0.0
2017-Dec-02 12:30N 50°05' W 125°17'0 0.1
2017-Dec-02 12:00N 50°05' W 125°17'0 0.0
2017-Dec-02 11:30N 50°05' W 125°17'0 0.0
2017-Dec-02 11:00N 50°05' W 125°17'0 0.0
2017-Dec-02 10:27N 50°05' W 125°17'0 0.1
2017-Dec-02 10:00N 50°05' W 125°17'0 0.1
2017-Dec-02 09:30N 50°05' W 125°17'0 0.1
2017-Dec-02 09:00N 50°05' W 125°17'0 0.1
2017-Dec-02 08:30N 50°05' W 125°17'0 0.0
2017-Dec-02 08:00N 50°05' W 125°17'0 0.1
2017-Dec-02 07:30N 50°05' W 125°17'0 0.1
2017-Dec-02 07:00N 50°05' W 125°17'0 0.0
2017-Dec-02 06:30N 50°05' W 125°17'0 0.0
2017-Dec-02 06:00N 50°05' W 125°17'0 0.0
2017-Dec-02 05:30N 50°05' W 125°17'0 0.1
2017-Dec-02 05:00N 50°05' W 125°17'0 0.0
2017-Dec-02 04:30N 50°05' W 125°17'0 0.1
2017-Dec-02 04:00N 50°05' W 125°17'0 0.0
2017-Dec-02 03:30N 50°05' W 125°17'0 0.0
2017-Dec-02 03:00N 50°05' W 125°17'0 0.0
2017-Dec-02 02:30N 50°05' W 125°17'0 0.0
2017-Dec-02 02:00N 50°05' W 125°17'0 0.0
2017-Dec-02 01:28N 50°05' W 125°17'0 0.1
2017-Dec-02 01:00N 50°05' W 125°17'0 0.0
2017-Dec-02 00:30N 50°05' W 125°17'0 0.0
2017-Dec-01 23:03N 50°05' W 125°17'0 0.0
2017-Dec-01 20:54N 50°05' W 125°17'0 0.0
2017-Dec-01 20:30N 50°05' W 125°17'0 0.0
2017-Dec-01 19:51N 50°05' W 125°17'0 0.0
2017-Dec-01 19:30N 50°05' W 125°17'0 0.1
2017-Dec-01 19:00N 50°05' W 125°17'0 0.1
2017-Dec-01 18:30N 50°05' W 125°17'0 0.1
2017-Dec-01 17:49N 50°05' W 125°17'0 0.1
2017-Dec-01 17:29N 50°05' W 125°17'0 0.0
2017-Dec-01 16:59N 50°05' W 125°17'0 0.0
2017-Dec-01 16:30N 50°05' W 125°17'0 0.1
2017-Dec-01 16:00N 50°05' W 125°17'0 0.1
2017-Dec-01 15:30N 50°05' W 125°17'0 0.0
2017-Dec-01 15:00N 50°05' W 125°17'0 0.0
2017-Dec-01 14:30N 50°05' W 125°17'0 0.0
2017-Dec-01 14:00N 50°05' W 125°17'0 0.0
2017-Dec-01 13:30N 50°05' W 125°17'0 0.1
2017-Dec-01 13:00N 50°05' W 125°17'0 0.0
2017-Dec-01 12:30N 50°05' W 125°17'0 0.1
2017-Dec-01 12:00N 50°05' W 125°17'0 0.1
2017-Dec-01 11:30N 50°05' W 125°17'0 0.1
2017-Dec-01 11:00N 50°05' W 125°17'0 0.0
2017-Dec-01 10:24N 50°05' W 125°17'0 0.1
2017-Dec-01 10:00N 50°05' W 125°17'0 0.1
2017-Dec-01 09:30N 50°05' W 125°17'0 0.1
2017-Dec-01 09:00N 50°05' W 125°17'0 0.1
2017-Dec-01 08:30N 50°05' W 125°17'0 0.0
2017-Dec-01 08:00N 50°05' W 125°17'0 0.0
2017-Dec-01 07:30N 50°05' W 125°17'0 0.0
2017-Dec-01 07:00N 50°05' W 125°17'0 0.0
2017-Dec-01 06:30N 50°05' W 125°17'0 0.0
2017-Dec-01 06:00N 50°05' W 125°17'0 0.0
2017-Dec-01 05:30N 50°05' W 125°17'0 0.1
2017-Dec-01 05:00N 50°05' W 125°17'0 0.0
2017-Dec-01 04:30N 50°05' W 125°17'0 0.1
2017-Dec-01 04:00N 50°05' W 125°17'0 0.0
2017-Dec-01 03:30N 50°05' W 125°17'0 0.0
2017-Dec-01 03:00N 50°05' W 125°17'0 0.0
2017-Dec-01 02:30N 50°05' W 125°17'0 0.0
2017-Dec-01 02:00N 50°05' W 125°17'0 0.0
2017-Dec-01 01:30N 50°05' W 125°17'0 0.1
2017-Dec-01 01:00N 50°05' W 125°17'0 0.1
2017-Dec-01 00:30N 50°05' W 125°17'0 0.0
2017-Dec-01 00:00N 50°05' W 125°17'  
Track history (hours):
 
Tides and Currents Weather Stations Pressure Air Temp Water Temp Dewpoint Dewpoint Depression Visibility Wind Speed Wind Dir Waves Ship Positions

Roy Kristian

Last reported at 2017-Dec-10 23:36 UTC. Time now 2017-Dec-11 09:46 UTC.
Position N 50°32' W 126°42'.

; draft 5 m.

Type: Fishing. MMSI: 316008770.

Date/timePositionNaut miles runAvg speedWind from/ knotsBaromVisibWave heightAir tempDewpointWater temp
2017-Dec-10 23:36N 50°32' W 126°42'2 9.5
2017-Dec-10 23:20N 50°33' W 126°46'4 9.6
2017-Dec-10 22:58N 50°33' W 126°52'1 1.1
2017-Dec-10 22:14N 50°32' W 126°53'0 0.1
2017-Dec-10 21:47N 50°32' W 126°53'10 7.8
2017-Dec-10 20:27N 50°40' W 126°42'9 4.3
2017-Dec-10 18:22N 50°45' W 126°30'4 0.3
2017-Dec-10 03:37N 50°48' W 126°26'110.0
2017-Dec-10 03:28N 50°47' W 126°28'4 1.6
2017-Dec-10 00:41N 50°45' W 126°33'3 9.1
2017-Dec-10 00:23N 50°46' W 126°30'3 0.9
2017-Dec-09 20:57N 50°48' W 126°26'710.7
2017-Dec-09 20:20N 50°44' W 126°34'1 0.7
2017-Dec-09 18:24N 50°45' W 126°32'8 0.6
2017-Dec-09 04:39N 50°50' W 126°22'210.2
2017-Dec-09 04:26N 50°49' W 126°25'510.4
2017-Dec-09 04:00N 50°45' W 126°30'1 0.5
2017-Dec-09 01:34N 50°45' W 126°32'110.3
2017-Dec-09 01:30N 50°45' W 126°31'7 2.0
2017-Dec-08 22:01N 50°50' W 126°22'1 9.6
2017-Dec-08 21:56N 50°49' W 126°23'511.0
2017-Dec-08 21:30N 50°46' W 126°29'4 1.7
2017-Dec-08 19:06N 50°44' W 126°34'310.0
2017-Dec-08 18:48N 50°45' W 126°30'3 9.7
2017-Dec-08 18:27N 50°48' W 126°27'6 0.4
2017-Dec-08 05:03N 50°51' W 126°19'0 0.1
2017-Dec-08 05:00N 50°51' W 126°19'0 0.1
2017-Dec-08 04:27N 50°51' W 126°19'4 8.4
2017-Dec-08 03:57N 50°49' W 126°25'510.2
2017-Dec-08 03:28N 50°45' W 126°30'4 1.9
2017-Dec-08 01:20N 50°43' W 126°35'3 9.7
2017-Dec-08 01:00N 50°45' W 126°31'10 3.2
2017-Dec-07 21:59N 50°51' W 126°19'5 9.8
2017-Dec-07 21:29N 50°48' W 126°26'7 9.9
2017-Dec-07 20:48N 50°44' W 126°34'1 0.4
2017-Dec-07 18:46N 50°43' W 126°34'3 8.1
2017-Dec-07 18:27N 50°45' W 126°31'4 9.7
2017-Dec-07 18:00N 50°48' W 126°27'5 0.4
2017-Dec-07 05:31N 50°51' W 126°19'2 7.7
2017-Dec-07 05:15N 50°50' W 126°22'2 9.5
2017-Dec-07 05:00N 50°49' W 126°26'8 2.7
2017-Dec-07 01:56N 50°43' W 126°35'  
2017-Dec-04 10:30N 50°05' W 125°17'0 0.0
2017-Dec-04 10:00N 50°05' W 125°17'0 0.1
2017-Dec-04 09:30N 50°05' W 125°17'0 0.0
2017-Dec-04 09:00N 50°05' W 125°17'0 0.0
2017-Dec-04 08:30N 50°05' W 125°17'0 0.0
2017-Dec-04 08:00N 50°05' W 125°17'0 0.1
2017-Dec-04 07:30N 50°05' W 125°17'0 0.0
2017-Dec-04 07:00N 50°05' W 125°17'0 0.0
2017-Dec-04 06:30N 50°05' W 125°17'0 0.0
2017-Dec-04 06:00N 50°05' W 125°17'0 0.0
2017-Dec-04 05:30N 50°05' W 125°17'0 0.0
2017-Dec-04 05:00N 50°05' W 125°17'0 0.1
2017-Dec-04 04:30N 50°05' W 125°17'0 0.1
2017-Dec-04 04:00N 50°05' W 125°17'0 0.1
2017-Dec-04 03:30N 50°05' W 125°17'0 0.1
2017-Dec-04 03:00N 50°05' W 125°17'0 0.0
2017-Dec-04 02:30N 50°05' W 125°17'0 0.1
2017-Dec-04 02:00N 50°05' W 125°17'0 0.1
2017-Dec-04 01:30N 50°05' W 125°17'0 0.1
2017-Dec-04 01:00N 50°05' W 125°17'0 0.0
2017-Dec-04 00:30N 50°05' W 125°17'0 0.1
2017-Dec-04 00:00N 50°05' W 125°17'0 0.1
2017-Dec-03 23:30N 50°05' W 125°17'0 0.1
2017-Dec-03 22:58N 50°05' W 125°17'0 0.0
2017-Dec-03 22:26N 50°05' W 125°17'0 0.1
2017-Dec-03 22:00N 50°05' W 125°17'0 0.0
2017-Dec-03 21:27N 50°05' W 125°17'0 0.1
2017-Dec-03 20:51N 50°05' W 125°17'0 0.0
2017-Dec-03 20:26N 50°05' W 125°17'0 0.1
2017-Dec-03 19:57N 50°05' W 125°17'0 0.1
2017-Dec-03 19:28N 50°05' W 125°17'0 0.0
2017-Dec-03 18:54N 50°05' W 125°17'0 0.0
2017-Dec-03 18:30N 50°05' W 125°17'0 0.0
2017-Dec-03 17:57N 50°05' W 125°17'0 0.1
2017-Dec-03 17:30N 50°05' W 125°17'0 0.0
2017-Dec-03 17:00N 50°05' W 125°17'0 0.1
2017-Dec-03 16:30N 50°05' W 125°17'0 0.0
2017-Dec-03 16:00N 50°05' W 125°17'0 0.0
2017-Dec-03 15:30N 50°05' W 125°17'0 0.1
2017-Dec-03 15:00N 50°05' W 125°17'0 0.1
2017-Dec-03 14:30N 50°05' W 125°17'0 0.1
2017-Dec-03 14:00N 50°05' W 125°17'0 0.1
2017-Dec-03 13:30N 50°05' W 125°17'0 0.0
2017-Dec-03 13:00N 50°05' W 125°17'0 0.1
2017-Dec-03 12:30N 50°05' W 125°17'0 0.1
2017-Dec-03 12:00N 50°05' W 125°17'0 0.1
2017-Dec-03 11:30N 50°05' W 125°17'0 0.1
2017-Dec-03 11:00N 50°05' W 125°17'0 0.0
2017-Dec-03 10:30N 50°05' W 125°17'0 0.0
2017-Dec-03 10:00N 50°05' W 125°17'0 0.1
2017-Dec-03 09:30N 50°05' W 125°17'0 0.0
2017-Dec-03 09:00N 50°05' W 125°17'0 0.1
2017-Dec-03 08:30N 50°05' W 125°17'0 0.0
2017-Dec-03 08:00N 50°05' W 125°17'0 0.0
2017-Dec-03 07:30N 50°05' W 125°17'0 0.0
2017-Dec-03 07:00N 50°05' W 125°17'0 0.0
2017-Dec-03 06:30N 50°05' W 125°17'0 0.0
2017-Dec-03 06:00N 50°05' W 125°17'0 0.0
2017-Dec-03 05:30N 50°05' W 125°17'0 0.0
2017-Dec-03 05:00N 50°05' W 125°17'0 0.1
2017-Dec-03 04:30N 50°05' W 125°17'0 0.1
2017-Dec-03 04:00N 50°05' W 125°17'0 0.0
2017-Dec-03 03:30N 50°05' W 125°17'0 0.0
2017-Dec-03 03:00N 50°05' W 125°17'0 0.1
2017-Dec-03 02:30N 50°05' W 125°17'0 0.0
2017-Dec-03 02:00N 50°05' W 125°17'0 0.1
2017-Dec-03 01:30N 50°05' W 125°17'0 0.0
2017-Dec-03 01:00N 50°05' W 125°17'0 0.0
2017-Dec-03 00:30N 50°05' W 125°17'0 0.0
2017-Dec-03 00:00N 50°05' W 125°17'0 0.0
2017-Dec-02 23:30N 50°05' W 125°17'0 0.0
2017-Dec-02 23:00N 50°05' W 125°17'0 0.0
2017-Dec-02 22:30N 50°05' W 125°17'0 0.1
2017-Dec-02 22:00N 50°05' W 125°17'0 0.0
2017-Dec-02 21:29N 50°05' W 125°17'0 0.1
2017-Dec-02 21:00N 50°05' W 125°17'0 0.0
2017-Dec-02 20:28N 50°05' W 125°17'0 0.1
2017-Dec-02 20:00N 50°05' W 125°17'0 0.1
2017-Dec-02 19:30N 50°05' W 125°17'0 0.0
2017-Dec-02 19:00N 50°05' W 125°17'0 0.1
2017-Dec-02 18:30N 50°05' W 125°17'0 0.1
2017-Dec-02 18:00N 50°05' W 125°17'0 0.1
2017-Dec-02 17:30N 50°05' W 125°17'0 0.1
2017-Dec-02 17:00N 50°05' W 125°17'0 0.1
2017-Dec-02 16:30N 50°05' W 125°17'0 0.0
2017-Dec-02 16:00N 50°05' W 125°17'0 0.1
2017-Dec-02 15:30N 50°05' W 125°17'0 0.0
2017-Dec-02 15:00N 50°05' W 125°17'0 0.0
2017-Dec-02 14:30N 50°05' W 125°17'0 0.1
2017-Dec-02 14:00N 50°05' W 125°17'0 0.1
2017-Dec-02 13:30N 50°05' W 125°17'0 0.1
2017-Dec-02 13:00N 50°05' W 125°17'0 0.0
2017-Dec-02 12:30N 50°05' W 125°17'0 0.1
2017-Dec-02 12:00N 50°05' W 125°17'0 0.0
2017-Dec-02 11:30N 50°05' W 125°17'0 0.0
2017-Dec-02 11:00N 50°05' W 125°17'0 0.0
2017-Dec-02 10:27N 50°05' W 125°17'0 0.1
2017-Dec-02 10:00N 50°05' W 125°17'0 0.1
2017-Dec-02 09:30N 50°05' W 125°17'0 0.1
2017-Dec-02 09:00N 50°05' W 125°17'0 0.1
2017-Dec-02 08:30N 50°05' W 125°17'0 0.0
2017-Dec-02 08:00N 50°05' W 125°17'0 0.1
2017-Dec-02 07:30N 50°05' W 125°17'0 0.1
2017-Dec-02 07:00N 50°05' W 125°17'0 0.0
2017-Dec-02 06:30N 50°05' W 125°17'0 0.0
2017-Dec-02 06:00N 50°05' W 125°17'0 0.0
2017-Dec-02 05:30N 50°05' W 125°17'0 0.1
2017-Dec-02 05:00N 50°05' W 125°17'0 0.0
2017-Dec-02 04:30N 50°05' W 125°17'0 0.1
2017-Dec-02 04:00N 50°05' W 125°17'0 0.0
2017-Dec-02 03:30N 50°05' W 125°17'0 0.0
2017-Dec-02 03:00N 50°05' W 125°17'0 0.0
2017-Dec-02 02:30N 50°05' W 125°17'0 0.0
2017-Dec-02 02:00N 50°05' W 125°17'0 0.0
2017-Dec-02 01:28N 50°05' W 125°17'0 0.1
2017-Dec-02 01:00N 50°05' W 125°17'0 0.0
2017-Dec-02 00:30N 50°05' W 125°17'0 0.0
2017-Dec-01 23:03N 50°05' W 125°17'0 0.0
2017-Dec-01 20:54N 50°05' W 125°17'0 0.0
2017-Dec-01 20:30N 50°05' W 125°17'0 0.0
2017-Dec-01 19:51N 50°05' W 125°17'0 0.0
2017-Dec-01 19:30N 50°05' W 125°17'0 0.1
2017-Dec-01 19:00N 50°05' W 125°17'0 0.1
2017-Dec-01 18:30N 50°05' W 125°17'0 0.1
2017-Dec-01 17:49N 50°05' W 125°17'0 0.1
2017-Dec-01 17:29N 50°05' W 125°17'0 0.0
2017-Dec-01 16:59N 50°05' W 125°17'0 0.0
2017-Dec-01 16:30N 50°05' W 125°17'0 0.1
2017-Dec-01 16:00N 50°05' W 125°17'0 0.1
2017-Dec-01 15:30N 50°05' W 125°17'0 0.0
2017-Dec-01 15:00N 50°05' W 125°17'0 0.0
2017-Dec-01 14:30N 50°05' W 125°17'0 0.0
2017-Dec-01 14:00N 50°05' W 125°17'0 0.0
2017-Dec-01 13:30N 50°05' W 125°17'0 0.1
2017-Dec-01 13:00N 50°05' W 125°17'0 0.0
2017-Dec-01 12:30N 50°05' W 125°17'0 0.1
2017-Dec-01 12:00N 50°05' W 125°17'0 0.1
2017-Dec-01 11:30N 50°05' W 125°17'0 0.1
2017-Dec-01 11:00N 50°05' W 125°17'0 0.0
2017-Dec-01 10:24N 50°05' W 125°17'0 0.1
2017-Dec-01 10:00N 50°05' W 125°17'0 0.1
2017-Dec-01 09:30N 50°05' W 125°17'0 0.1
2017-Dec-01 09:00N 50°05' W 125°17'0 0.1
2017-Dec-01 08:30N 50°05' W 125°17'0 0.0
2017-Dec-01 08:00N 50°05' W 125°17'0 0.0
2017-Dec-01 07:30N 50°05' W 125°17'0 0.0
2017-Dec-01 07:00N 50°05' W 125°17'0 0.0
2017-Dec-01 06:30N 50°05' W 125°17'0 0.0
2017-Dec-01 06:00N 50°05' W 125°17'0 0.0
2017-Dec-01 05:30N 50°05' W 125°17'0 0.1
2017-Dec-01 05:00N 50°05' W 125°17'0 0.0
2017-Dec-01 04:30N 50°05' W 125°17'0 0.1
2017-Dec-01 04:00N 50°05' W 125°17'0 0.0
2017-Dec-01 03:30N 50°05' W 125°17'0 0.0
2017-Dec-01 03:00N 50°05' W 125°17'0 0.0
2017-Dec-01 02:30N 50°05' W 125°17'0 0.0
2017-Dec-01 02:00N 50°05' W 125°17'0 0.0
2017-Dec-01 01:30N 50°05' W 125°17'0 0.1
2017-Dec-01 01:00N 50°05' W 125°17'0 0.1
2017-Dec-01 00:30N 50°05' W 125°17'0 0.0
2017-Dec-01 00:00N 50°05' W 125°17'  

Dump ship's entire track history